sensor_id;sensor_type;location;lat;lon;timestamp;P1;durP1;ratioP1;P2;durP2;ratioP2
22017;SDS011;11173;51.050;7.108;2022-08-21T00:04:51;4.95;;;2.67;;
22017;SDS011;11173;51.050;7.108;2022-08-21T00:09:52;3.28;;;2.40;;
22017;SDS011;11173;51.050;7.108;2022-08-21T00:14:52;2.88;;;2.40;;
22017;SDS011;11173;51.050;7.108;2022-08-21T00:19:53;6.55;;;2.92;;
22017;SDS011;11173;51.050;7.108;2022-08-21T00:24:54;4.30;;;2.60;;
22017;SDS011;11173;51.050;7.108;2022-08-21T00:29:54;5.05;;;3.47;;
22017;SDS011;11173;51.050;7.108;2022-08-21T00:34:55;4.07;;;3.20;;
22017;SDS011;11173;51.050;7.108;2022-08-21T00:39:56;3.17;;;2.72;;
22017;SDS011;11173;51.050;7.108;2022-08-21T00:44:56;4.45;;;3.33;;
22017;SDS011;11173;51.050;7.108;2022-08-21T00:49:57;3.33;;;2.85;;
22017;SDS011;11173;51.050;7.108;2022-08-21T00:54:57;4.15;;;2.67;;
22017;SDS011;11173;51.050;7.108;2022-08-21T00:59:59;4.18;;;2.33;;
22017;SDS011;11173;51.050;7.108;2022-08-21T01:05:04;3.72;;;3.05;;
22017;SDS011;11173;51.050;7.108;2022-08-21T01:10:06;3.28;;;2.65;;
22017;SDS011;11173;51.050;7.108;2022-08-21T01:15:08;3.72;;;2.63;;
22017;SDS011;11173;51.050;7.108;2022-08-21T01:20:10;3.42;;;2.75;;
22017;SDS011;11173;51.050;7.108;2022-08-21T01:25:12;4.38;;;2.90;;
22017;SDS011;11173;51.050;7.108;2022-08-21T01:30:20;4.20;;;2.50;;
22017;SDS011;11173;51.050;7.108;2022-08-21T01:35:25;2.13;;;1.95;;
22017;SDS011;11173;51.050;7.108;2022-08-21T01:40:25;0.60;;;0.60;;
22017;SDS011;11173;51.050;7.108;2022-08-21T01:45:26;0.52;;;0.52;;
22017;SDS011;11173;51.050;7.108;2022-08-21T01:50:26;0.50;;;0.50;;
22017;SDS011;11173;51.050;7.108;2022-08-21T01:55:27;1.52;;;1.30;;
22017;SDS011;11173;51.050;7.108;2022-08-21T02:00:27;2.38;;;2.17;;
22017;SDS011;11173;51.050;7.108;2022-08-21T02:05:27;1.80;;;1.67;;
22017;SDS011;11173;51.050;7.108;2022-08-21T02:10:30;2.15;;;1.80;;
22017;SDS011;11173;51.050;7.108;2022-08-21T02:15:31;3.85;;;2.72;;
22017;SDS011;11173;51.050;7.108;2022-08-21T02:20:33;2.67;;;2.45;;
22017;SDS011;11173;51.050;7.108;2022-08-21T02:25:36;2.40;;;2.20;;
22017;SDS011;11173;51.050;7.108;2022-08-21T02:30:39;2.20;;;2.00;;
22017;SDS011;11173;51.050;7.108;2022-08-21T02:35:43;1.63;;;1.23;;
22017;SDS011;11173;51.050;7.108;2022-08-21T02:40:45;2.55;;;1.92;;
22017;SDS011;11173;51.050;7.108;2022-08-21T02:45:47;5.50;;;3.08;;
22017;SDS011;11173;51.050;7.108;2022-08-21T02:50:56;2.65;;;2.33;;
22017;SDS011;11173;51.050;7.108;2022-08-21T03:01:00;3.15;;;2.63;;
22017;SDS011;11173;51.050;7.108;2022-08-21T03:06:01;2.88;;;2.35;;
22017;SDS011;11173;51.050;7.108;2022-08-21T03:11:02;2.10;;;1.90;;
22017;SDS011;11173;51.050;7.108;2022-08-21T03:16:03;2.58;;;2.15;;
22017;SDS011;11173;51.050;7.108;2022-08-21T03:21:03;3.63;;;3.30;;
22017;SDS011;11173;51.050;7.108;2022-08-21T03:26:04;4.07;;;3.10;;
22017;SDS011;11173;51.050;7.108;2022-08-21T03:31:05;3.00;;;2.60;;
22017;SDS011;11173;51.050;7.108;2022-08-21T03:36:06;3.03;;;2.72;;
22017;SDS011;11173;51.050;7.108;2022-08-21T03:41:08;2.53;;;2.33;;
22017;SDS011;11173;51.050;7.108;2022-08-21T03:46:08;2.30;;;2.20;;
22017;SDS011;11173;51.050;7.108;2022-08-21T03:51:09;3.25;;;2.63;;
22017;SDS011;11173;51.050;7.108;2022-08-21T03:56:10;2.35;;;2.10;;
22017;SDS011;11173;51.050;7.108;2022-08-21T04:01:10;4.60;;;2.80;;
22017;SDS011;11173;51.050;7.108;2022-08-21T04:06:11;1.93;;;1.73;;
22017;SDS011;11173;51.050;7.108;2022-08-21T04:11:11;5.00;;;3.17;;
22017;SDS011;11173;51.050;7.108;2022-08-21T04:16:12;3.72;;;3.33;;
22017;SDS011;11173;51.050;7.108;2022-08-21T04:21:13;2.70;;;2.50;;
22017;SDS011;11173;51.050;7.108;2022-08-21T04:26:14;2.42;;;2.22;;
22017;SDS011;11173;51.050;7.108;2022-08-21T04:31:14;3.20;;;2.92;;
22017;SDS011;11173;51.050;7.108;2022-08-21T04:36:15;5.77;;;3.67;;
22017;SDS011;11173;51.050;7.108;2022-08-21T04:41:15;3.78;;;3.13;;
22017;SDS011;11173;51.050;7.108;2022-08-21T04:46:16;4.18;;;3.38;;
22017;SDS011;11173;51.050;7.108;2022-08-21T04:51:22;5.22;;;3.40;;
22017;SDS011;11173;51.050;7.108;2022-08-21T04:56:47;4.82;;;3.35;;
22017;SDS011;11173;51.050;7.108;2022-08-21T05:01:51;4.30;;;3.67;;
22017;SDS011;11173;51.050;7.108;2022-08-21T05:06:54;5.38;;;3.50;;
22017;SDS011;11173;51.050;7.108;2022-08-21T05:12:00;2.10;;;1.90;;
22017;SDS011;11173;51.050;7.108;2022-08-21T05:17:02;1.90;;;1.50;;
22017;SDS011;11173;51.050;7.108;2022-08-21T05:22:02;0.60;;;0.60;;
22017;SDS011;11173;51.050;7.108;2022-08-21T05:27:03;0.60;;;0.57;;
22017;SDS011;11173;51.050;7.108;2022-08-21T05:32:10;0.40;;;0.40;;
22017;SDS011;11173;51.050;7.108;2022-08-21T05:37:12;0.40;;;0.30;;
22017;SDS011;11173;51.050;7.108;2022-08-21T05:42:12;0.28;;;0.28;;
22017;SDS011;11173;51.050;7.108;2022-08-21T05:47:13;0.20;;;0.20;;
22017;SDS011;11173;51.050;7.108;2022-08-21T05:52:17;0.40;;;0.40;;
22017;SDS011;11173;51.050;7.108;2022-08-21T05:57:19;0.63;;;0.50;;
22017;SDS011;11173;51.050;7.108;2022-08-21T06:02:20;0.20;;;0.20;;
22017;SDS011;11173;51.050;7.108;2022-08-21T06:07:21;0.45;;;0.30;;
22017;SDS011;11173;51.050;7.108;2022-08-21T06:12:21;0.20;;;0.20;;
22017;SDS011;11173;51.050;7.108;2022-08-21T06:17:21;0.35;;;0.25;;
22017;SDS011;11173;51.050;7.108;2022-08-21T06:22:23;0.68;;;0.20;;
22017;SDS011;11173;51.050;7.108;2022-08-21T06:27:23;0.40;;;0.32;;
22017;SDS011;11173;51.050;7.108;2022-08-21T06:32:24;0.30;;;0.30;;
22017;SDS011;11173;51.050;7.108;2022-08-21T06:37:24;0.47;;;0.47;;
22017;SDS011;11173;51.050;7.108;2022-08-21T06:42:25;0.63;;;0.40;;
22017;SDS011;11173;51.050;7.108;2022-08-21T06:47:27;0.20;;;0.20;;
22017;SDS011;11173;51.050;7.108;2022-08-21T06:52:28;1.17;;;0.35;;
22017;SDS011;11173;51.050;7.108;2022-08-21T06:57:28;0.57;;;0.47;;
22017;SDS011;11173;51.050;7.108;2022-08-21T07:02:28;0.57;;;0.40;;
22017;SDS011;11173;51.050;7.108;2022-08-21T07:07:29;0.20;;;0.20;;
22017;SDS011;11173;51.050;7.108;2022-08-21T07:12:33;1.33;;;0.40;;
22017;SDS011;11173;51.050;7.108;2022-08-21T07:17:33;0.30;;;0.30;;
22017;SDS011;11173;51.050;7.108;2022-08-21T07:22:35;0.40;;;0.40;;
22017;SDS011;11173;51.050;7.108;2022-08-21T07:27:36;2.33;;;0.50;;
22017;SDS011;11173;51.050;7.108;2022-08-21T07:32:37;1.30;;;1.00;;
22017;SDS011;11173;51.050;7.108;2022-08-21T07:37:37;0.85;;;0.63;;
22017;SDS011;11173;51.050;7.108;2022-08-21T07:42:41;2.15;;;1.20;;
22017;SDS011;11173;51.050;7.108;2022-08-21T07:47:43;1.10;;;1.00;;
22017;SDS011;11173;51.050;7.108;2022-08-21T07:52:45;0.68;;;0.68;;
22017;SDS011;11173;51.050;7.108;2022-08-21T07:57:46;2.47;;;0.80;;
22017;SDS011;11173;51.050;7.108;2022-08-21T08:02:48;0.30;;;0.30;;
22017;SDS011;11173;51.050;7.108;2022-08-21T08:07:50;0.45;;;0.45;;
22017;SDS011;11173;51.050;7.108;2022-08-21T08:12:51;0.85;;;0.43;;
22017;SDS011;11173;51.050;7.108;2022-08-21T08:17:54;0.40;;;0.40;;
22017;SDS011;11173;51.050;7.108;2022-08-21T08:22:57;1.73;;;0.70;;
22017;SDS011;11173;51.050;7.108;2022-08-21T08:27:57;0.47;;;0.40;;
22017;SDS011;11173;51.050;7.108;2022-08-21T08:32:57;0.95;;;0.38;;
22017;SDS011;11173;51.050;7.108;2022-08-21T08:37:59;0.30;;;0.30;;
22017;SDS011;11173;51.050;7.108;2022-08-21T08:42:59;0.97;;;0.40;;
22017;SDS011;11173;51.050;7.108;2022-08-21T08:48:01;0.83;;;0.40;;
22017;SDS011;11173;51.050;7.108;2022-08-21T08:53:06;0.20;;;0.10;;
22017;SDS011;11173;51.050;7.108;2022-08-21T08:58:09;0.30;;;0.30;;
22017;SDS011;11173;51.050;7.108;2022-08-21T09:03:17;0.57;;;0.30;;
22017;SDS011;11173;51.050;7.108;2022-08-21T09:13:31;0.63;;;0.50;;
22017;SDS011;11173;51.050;7.108;2022-08-21T09:18:50;1.85;;;0.57;;
22017;SDS011;11173;51.050;7.108;2022-08-21T09:29:24;1.10;;;0.60;;
22017;SDS011;11173;51.050;7.108;2022-08-21T09:34:30;0.73;;;0.47;;
22017;SDS011;11173;51.050;7.108;2022-08-21T09:39:37;0.95;;;0.30;;
22017;SDS011;11173;51.050;7.108;2022-08-21T09:44:40;0.60;;;0.30;;
22017;SDS011;11173;51.050;7.108;2022-08-21T09:49:43;0.30;;;0.30;;
22017;SDS011;11173;51.050;7.108;2022-08-21T09:54:45;0.20;;;0.20;;
22017;SDS011;11173;51.050;7.108;2022-08-21T09:59:46;1.13;;;0.50;;
22017;SDS011;11173;51.050;7.108;2022-08-21T10:04:51;3.80;;;1.17;;
22017;SDS011;11173;51.050;7.108;2022-08-21T10:10:01;1.20;;;0.75;;
22017;SDS011;11173;51.050;7.108;2022-08-21T10:20:22;0.88;;;0.50;;
22017;SDS011;11173;51.050;7.108;2022-08-21T10:25:33;2.20;;;0.70;;
22017;SDS011;11173;51.050;7.108;2022-08-21T10:30:52;1.98;;;0.60;;
22017;SDS011;11173;51.050;7.108;2022-08-21T10:41:07;0.68;;;0.47;;
22017;SDS011;11173;51.050;7.108;2022-08-21T10:52:02;1.00;;;0.40;;
22017;SDS011;11173;51.050;7.108;2022-08-21T11:02:52;1.15;;;0.30;;
22017;SDS011;11173;51.050;7.108;2022-08-21T11:08:02;0.60;;;0.40;;
22017;SDS011;11173;51.050;7.108;2022-08-21T11:13:11;1.40;;;0.47;;
22017;SDS011;11173;51.050;7.108;2022-08-21T11:23:33;2.78;;;0.63;;
22017;SDS011;11173;51.050;7.108;2022-08-21T11:28:45;0.98;;;0.52;;
22017;SDS011;11173;51.050;7.108;2022-08-21T11:39:22;1.63;;;0.43;;
22017;SDS011;11173;51.050;7.108;2022-08-21T11:44:38;0.90;;;0.20;;
22017;SDS011;11173;51.050;7.108;2022-08-21T12:00:20;0.43;;;0.30;;
22017;SDS011;11173;51.050;7.108;2022-08-21T12:05:36;1.50;;;0.40;;
22017;SDS011;11173;51.050;7.108;2022-08-21T12:10:47;0.70;;;0.38;;
22017;SDS011;11173;51.050;7.108;2022-08-21T12:16:08;0.70;;;0.40;;
22017;SDS011;11173;51.050;7.108;2022-08-21T12:26:22;0.57;;;0.30;;
22017;SDS011;11173;51.050;7.108;2022-08-21T12:31:28;0.32;;;0.20;;
22017;SDS011;11173;51.050;7.108;2022-08-21T12:36:35;0.80;;;0.43;;
22017;SDS011;11173;51.050;7.108;2022-08-21T12:46:54;1.15;;;0.25;;
22017;SDS011;11173;51.050;7.108;2022-08-21T12:52:03;0.40;;;0.20;;
22017;SDS011;11173;51.050;7.108;2022-08-21T12:57:17;1.35;;;0.38;;
22017;SDS011;11173;51.050;7.108;2022-08-21T13:02:21;1.52;;;0.50;;
22017;SDS011;11173;51.050;7.108;2022-08-21T13:07:26;0.47;;;0.32;;
22017;SDS011;11173;51.050;7.108;2022-08-21T13:12:32;1.50;;;0.40;;
22017;SDS011;11173;51.050;7.108;2022-08-21T13:17:36;1.13;;;0.40;;
22017;SDS011;11173;51.050;7.108;2022-08-21T13:22:41;0.65;;;0.40;;
22017;SDS011;11173;51.050;7.108;2022-08-21T13:27:44;0.30;;;0.28;;
22017;SDS011;11173;51.050;7.108;2022-08-21T13:32:57;0.93;;;0.32;;
22017;SDS011;11173;51.050;7.108;2022-08-21T13:38:00;0.20;;;0.20;;
22017;SDS011;11173;51.050;7.108;2022-08-21T13:43:00;0.88;;;0.20;;
22017;SDS011;11173;51.050;7.108;2022-08-21T13:48:01;0.60;;;0.30;;
22017;SDS011;11173;51.050;7.108;2022-08-21T13:53:04;1.40;;;0.40;;
22017;SDS011;11173;51.050;7.108;2022-08-21T13:58:07;0.60;;;0.50;;
22017;SDS011;11173;51.050;7.108;2022-08-21T14:03:08;0.80;;;0.40;;
22017;SDS011;11173;51.050;7.108;2022-08-21T14:08:13;2.35;;;0.50;;
22017;SDS011;11173;51.050;7.108;2022-08-21T14:14:02;1.52;;;0.50;;
22017;SDS011;11173;51.050;7.108;2022-08-21T14:18:46;1.30;;;0.30;;
22017;SDS011;11173;51.050;7.108;2022-08-21T14:24:08;3.05;;;0.30;;
22017;SDS011;11173;51.050;7.108;2022-08-21T14:29:14;1.17;;;0.60;;
22017;SDS011;11173;51.050;7.108;2022-08-21T14:34:16;0.70;;;0.40;;
22017;SDS011;11173;51.050;7.108;2022-08-21T14:39:17;1.73;;;0.40;;
22017;SDS011;11173;51.050;7.108;2022-08-21T14:44:18;1.40;;;0.30;;
22017;SDS011;11173;51.050;7.108;2022-08-21T14:49:19;0.70;;;0.32;;
22017;SDS011;11173;51.050;7.108;2022-08-21T14:54:19;2.72;;;0.77;;
22017;SDS011;11173;51.050;7.108;2022-08-21T14:59:20;0.40;;;0.30;;
22017;SDS011;11173;51.050;7.108;2022-08-21T15:04:21;1.55;;;0.35;;
22017;SDS011;11173;51.050;7.108;2022-08-21T15:09:22;1.50;;;0.50;;
22017;SDS011;11173;51.050;7.108;2022-08-21T15:14:27;0.40;;;0.40;;
22017;SDS011;11173;51.050;7.108;2022-08-21T15:19:29;0.63;;;0.30;;
22017;SDS011;11173;51.050;7.108;2022-08-21T15:24:30;0.20;;;0.20;;
22017;SDS011;11173;51.050;7.108;2022-08-21T15:29:30;0.30;;;0.25;;
22017;SDS011;11173;51.050;7.108;2022-08-21T15:34:31;0.25;;;0.20;;
22017;SDS011;11173;51.050;7.108;2022-08-21T15:39:32;2.45;;;0.30;;
22017;SDS011;11173;51.050;7.108;2022-08-21T15:44:32;0.50;;;0.40;;
22017;SDS011;11173;51.050;7.108;2022-08-21T15:49:33;0.40;;;0.30;;
22017;SDS011;11173;51.050;7.108;2022-08-21T15:54:33;0.30;;;0.22;;
22017;SDS011;11173;51.050;7.108;2022-08-21T15:59:37;0.10;;;0.10;;
22017;SDS011;11173;51.050;7.108;2022-08-21T16:04:40;0.30;;;0.20;;
22017;SDS011;11173;51.050;7.108;2022-08-21T16:09:41;0.32;;;0.10;;
22017;SDS011;11173;51.050;7.108;2022-08-21T16:14:41;0.38;;;0.30;;
22017;SDS011;11173;51.050;7.108;2022-08-21T16:19:42;0.45;;;0.20;;
22017;SDS011;11173;51.050;7.108;2022-08-21T16:24:43;1.33;;;0.40;;
22017;SDS011;11173;51.050;7.108;2022-08-21T16:29:44;0.52;;;0.30;;
22017;SDS011;11173;51.050;7.108;2022-08-21T16:34:46;0.32;;;0.20;;
22017;SDS011;11173;51.050;7.108;2022-08-21T16:39:48;0.52;;;0.17;;
22017;SDS011;11173;51.050;7.108;2022-08-21T16:44:48;0.20;;;0.10;;
22017;SDS011;11173;51.050;7.108;2022-08-21T16:49:48;0.20;;;0.20;;
22017;SDS011;11173;51.050;7.108;2022-08-21T16:54:50;0.25;;;0.10;;
22017;SDS011;11173;51.050;7.108;2022-08-21T16:59:50;0.80;;;0.40;;
22017;SDS011;11173;51.050;7.108;2022-08-21T17:04:51;0.25;;;0.10;;
22017;SDS011;11173;51.050;7.108;2022-08-21T17:10:00;0.30;;;0.22;;
22017;SDS011;11173;51.050;7.108;2022-08-21T17:15:03;0.20;;;0.20;;
22017;SDS011;11173;51.050;7.108;2022-08-21T17:20:05;0.68;;;0.30;;
22017;SDS011;11173;51.050;7.108;2022-08-21T17:25:07;0.40;;;0.32;;
22017;SDS011;11173;51.050;7.108;2022-08-21T17:30:09;0.28;;;0.20;;
22017;SDS011;11173;51.050;7.108;2022-08-21T17:35:10;0.35;;;0.20;;
22017;SDS011;11173;51.050;7.108;2022-08-21T17:40:12;0.40;;;0.30;;
22017;SDS011;11173;51.050;7.108;2022-08-21T17:45:15;1.27;;;0.30;;
22017;SDS011;11173;51.050;7.108;2022-08-21T17:50:17;0.22;;;0.20;;
22017;SDS011;11173;51.050;7.108;2022-08-21T17:55:18;1.17;;;0.43;;
22017;SDS011;11173;51.050;7.108;2022-08-21T18:00:23;0.85;;;0.30;;
22017;SDS011;11173;51.050;7.108;2022-08-21T18:05:25;0.38;;;0.20;;
22017;SDS011;11173;51.050;7.108;2022-08-21T18:10:25;0.90;;;0.10;;
22017;SDS011;11173;51.050;7.108;2022-08-21T18:15:26;0.30;;;0.20;;
22017;SDS011;11173;51.050;7.108;2022-08-21T18:20:27;0.20;;;0.20;;
22017;SDS011;11173;51.050;7.108;2022-08-21T18:25:28;0.22;;;0.20;;
22017;SDS011;11173;51.050;7.108;2022-08-21T18:30:29;0.30;;;0.10;;
22017;SDS011;11173;51.050;7.108;2022-08-21T18:35:30;0.43;;;0.10;;
22017;SDS011;11173;51.050;7.108;2022-08-21T18:40:31;0.20;;;0.20;;
22017;SDS011;11173;51.050;7.108;2022-08-21T18:45:32;0.70;;;0.45;;
22017;SDS011;11173;51.050;7.108;2022-08-21T18:50:36;0.85;;;0.20;;
22017;SDS011;11173;51.050;7.108;2022-08-21T18:55:39;0.10;;;0.10;;
22017;SDS011;11173;51.050;7.108;2022-08-21T19:00:43;0.50;;;0.30;;
22017;SDS011;11173;51.050;7.108;2022-08-21T19:05:46;0.22;;;0.10;;
22017;SDS011;11173;51.050;7.108;2022-08-21T19:10:48;2.13;;;0.35;;
22017;SDS011;11173;51.050;7.108;2022-08-21T19:15:50;0.50;;;0.30;;
22017;SDS011;11173;51.050;7.108;2022-08-21T19:20:54;0.30;;;0.30;;
22017;SDS011;11173;51.050;7.108;2022-08-21T19:25:56;0.82;;;0.25;;
22017;SDS011;11173;51.050;7.108;2022-08-21T19:30:59;0.43;;;0.30;;
22017;SDS011;11173;51.050;7.108;2022-08-21T19:36:06;0.52;;;0.30;;
22017;SDS011;11173;51.050;7.108;2022-08-21T19:41:08;0.80;;;0.32;;
22017;SDS011;11173;51.050;7.108;2022-08-21T19:46:11;0.40;;;0.30;;
22017;SDS011;11173;51.050;7.108;2022-08-21T19:51:17;0.20;;;0.20;;
22017;SDS011;11173;51.050;7.108;2022-08-21T19:56:19;0.43;;;0.30;;
22017;SDS011;11173;51.050;7.108;2022-08-21T20:01:22;1.00;;;0.40;;
22017;SDS011;11173;51.050;7.108;2022-08-21T20:06:25;0.20;;;0.20;;
22017;SDS011;11173;51.050;7.108;2022-08-21T20:11:33;1.00;;;0.50;;
22017;SDS011;11173;51.050;7.108;2022-08-21T20:16:38;0.70;;;0.30;;
22017;SDS011;11173;51.050;7.108;2022-08-21T20:21:39;0.57;;;0.30;;
22017;SDS011;11173;51.050;7.108;2022-08-21T20:26:40;0.47;;;0.38;;
22017;SDS011;11173;51.050;7.108;2022-08-21T20:31:42;1.90;;;0.50;;
22017;SDS011;11173;51.050;7.108;2022-08-21T20:36:43;1.27;;;0.43;;
22017;SDS011;11173;51.050;7.108;2022-08-21T20:41:43;0.20;;;0.20;;
22017;SDS011;11173;51.050;7.108;2022-08-21T20:46:43;0.43;;;0.20;;
22017;SDS011;11173;51.050;7.108;2022-08-21T20:51:45;0.25;;;0.25;;
22017;SDS011;11173;51.050;7.108;2022-08-21T20:56:51;1.27;;;0.40;;
22017;SDS011;11173;51.050;7.108;2022-08-21T21:01:56;0.10;;;0.10;;
22017;SDS011;11173;51.050;7.108;2022-08-21T21:07:06;0.10;;;0.10;;
22017;SDS011;11173;51.050;7.108;2022-08-21T21:12:19;0.20;;;0.10;;
22017;SDS011;11173;51.050;7.108;2022-08-21T21:17:29;1.20;;;0.30;;
22017;SDS011;11173;51.050;7.108;2022-08-21T21:22:45;0.95;;;0.52;;
22017;SDS011;11173;51.050;7.108;2022-08-21T21:27:54;0.60;;;0.50;;
22017;SDS011;11173;51.050;7.108;2022-08-21T21:33:00;0.17;;;0.15;;
22017;SDS011;11173;51.050;7.108;2022-08-21T21:38:01;0.20;;;0.20;;
22017;SDS011;11173;51.050;7.108;2022-08-21T22:15:34;0.85;;;0.40;;
22017;SDS011;11173;51.050;7.108;2022-08-21T22:20:37;1.30;;;0.40;;
22017;SDS011;11173;51.050;7.108;2022-08-21T22:25:39;0.52;;;0.40;;
22017;SDS011;11173;51.050;7.108;2022-08-21T22:35:50;1.35;;;0.45;;
22017;SDS011;11173;51.050;7.108;2022-08-21T22:40:53;0.88;;;0.40;;
22017;SDS011;11173;51.050;7.108;2022-08-21T22:46:12;0.70;;;0.50;;
22017;SDS011;11173;51.050;7.108;2022-08-21T22:51:31;1.50;;;0.20;;
22017;SDS011;11173;51.050;7.108;2022-08-21T22:56:36;0.35;;;0.20;;
22017;SDS011;11173;51.050;7.108;2022-08-21T23:01:42;0.90;;;0.40;;
22017;SDS011;11173;51.050;7.108;2022-08-21T23:06:45;0.30;;;0.20;;
22017;SDS011;11173;51.050;7.108;2022-08-21T23:11:51;0.55;;;0.32;;
22017;SDS011;11173;51.050;7.108;2022-08-21T23:17:00;0.45;;;0.20;;
22017;SDS011;11173;51.050;7.108;2022-08-21T23:22:25;0.38;;;0.38;;
22017;SDS011;11173;51.050;7.108;2022-08-21T23:38:12;0.13;;;0.13;;
